createdAt,value
2023-02-05T00:01:36.927Z,8.53
2023-02-05T00:04:38.944Z,9.63
2023-02-05T00:07:40.570Z,9.27
2023-02-05T00:10:42.198Z,8.73
2023-02-05T00:13:44.185Z,9.30
2023-02-05T00:16:45.866Z,9.70
2023-02-05T00:19:47.454Z,9.03
2023-02-05T00:22:49.034Z,10.60
2023-02-05T00:25:50.622Z,9.23
2023-02-05T00:28:52.372Z,10.13
2023-02-05T00:31:53.982Z,9.77
2023-02-05T00:34:55.631Z,10.03
2023-02-05T00:37:57.270Z,9.50
2023-02-05T00:40:59.130Z,10.23
2023-02-05T00:44:00.848Z,9.73
2023-02-05T00:47:02.494Z,9.07
2023-02-05T00:50:04.367Z,9.13
2023-02-05T00:53:05.999Z,9.10
2023-02-05T00:56:07.830Z,7.43
2023-02-05T00:59:09.951Z,7.37
2023-02-05T01:02:11.613Z,7.60
2023-02-05T01:05:13.291Z,5.67
2023-02-05T01:08:15.107Z,5.70
2023-02-05T01:11:16.859Z,6.13
2023-02-05T01:14:18.513Z,6.43
2023-02-05T01:17:20.652Z,6.00
2023-02-05T01:20:22.402Z,6.30
2023-02-05T01:23:24.015Z,5.47
2023-02-05T01:26:25.721Z,5.77
2023-02-05T01:29:29.330Z,4.40
2023-02-05T01:32:31.302Z,4.90
2023-02-05T01:35:33.269Z,4.77
2023-02-05T01:38:35.056Z,4.90
2023-02-05T01:41:37.023Z,4.97
2023-02-05T01:44:38.610Z,4.97
2023-02-05T01:47:40.223Z,4.83
2023-02-05T01:50:43.253Z,4.50
2023-02-05T01:53:45.552Z,4.40
2023-02-05T01:56:50.861Z,4.47
2023-02-05T01:59:52.497Z,4.80
2023-02-05T02:02:54.157Z,4.33
2023-02-05T02:05:56.177Z,4.70
2023-02-05T02:08:58.170Z,4.70
2023-02-05T02:12:00.270Z,4.67
2023-02-05T02:15:05.133Z,4.20
2023-02-05T02:18:25.457Z,4.60
2023-02-05T02:21:42.436Z,4.27
2023-02-05T02:24:44.088Z,4.20
2023-02-05T02:28:04.592Z,5.07
2023-02-05T02:31:11.348Z,4.83
2023-02-05T02:34:31.777Z,4.93
2023-02-05T02:37:39.959Z,4.97
2023-02-05T02:40:47.690Z,4.90
2023-02-05T02:43:58.359Z,3.83
2023-02-05T02:47:03.623Z,5.40
2023-02-05T02:50:14.473Z,5.90
2023-02-05T02:53:21.423Z,5.30
2023-02-05T02:56:24.621Z,4.87
2023-02-05T02:59:27.744Z,5.20
2023-02-05T03:02:31.309Z,5.77
2023-02-05T03:05:34.645Z,6.00
2023-02-05T03:08:40.248Z,6.57
2023-02-05T03:11:42.151Z,6.63
2023-02-05T03:14:44.886Z,6.83
2023-02-05T03:17:46.657Z,7.10
2023-02-05T03:20:56.597Z,7.07
2023-02-05T03:23:58.270Z,6.93
2023-02-05T03:26:59.891Z,7.60
2023-02-05T03:30:02.309Z,7.90
2023-02-05T03:33:16.013Z,7.40
2023-02-05T03:36:25.833Z,7.60
2023-02-05T03:39:41.929Z,7.33
2023-02-05T03:42:43.649Z,7.80
2023-02-05T03:45:45.401Z,8.60
2023-02-05T03:48:56.819Z,8.07
2023-02-05T03:52:03.039Z,8.27
2023-02-05T03:55:04.839Z,7.50
2023-02-05T03:58:34.590Z,8.23
2023-02-05T04:01:37.460Z,8.50
2023-02-05T04:04:39.246Z,9.10
2023-02-05T04:07:42.710Z,8.60
2023-02-05T04:10:45.960Z,8.27
2023-02-05T04:13:48.015Z,8.57
2023-02-05T04:16:49.886Z,9.27
2023-02-05T04:19:52.779Z,9.50
2023-02-05T04:22:55.439Z,8.80
2023-02-05T04:25:59.837Z,9.80
2023-02-05T04:29:13.707Z,9.10
2023-02-05T04:32:20.112Z,8.80
2023-02-05T04:35:22.155Z,10.50
2023-02-05T04:38:24.358Z,10.67
2023-02-05T04:41:26.006Z,11.27
2023-02-05T04:44:27.849Z,10.00
2023-02-05T04:47:30.535Z,8.83
2023-02-05T04:50:32.363Z,9.53
2023-02-05T04:53:34.116Z,8.80
2023-02-05T04:56:35.736Z,8.47
2023-02-05T04:59:37.488Z,8.47
2023-02-05T05:02:39.128Z,8.43
2023-02-05T05:05:40.816Z,9.37
2023-02-05T05:08:42.780Z,9.93
2023-02-05T05:11:44.400Z,10.53
2023-02-05T05:14:46.070Z,9.77
2023-02-05T05:17:47.663Z,8.63
2023-02-05T05:20:49.341Z,7.97
2023-02-05T05:23:50.965Z,7.40
2023-02-05T05:26:52.574Z,9.47
2023-02-05T05:29:54.225Z,9.23
2023-02-05T05:32:55.835Z,10.33
2023-02-05T05:35:57.408Z,12.63
2023-02-05T05:39:19.024Z,9.73
2023-02-05T05:42:40.340Z,8.90
2023-02-05T05:45:41.954Z,7.17
2023-02-05T05:48:43.595Z,5.47
2023-02-05T05:51:45.201Z,7.77
2023-02-05T05:54:47.025Z,6.90
2023-02-05T05:57:48.589Z,13.87
2023-02-05T06:00:50.297Z,11.27
2023-02-05T06:03:52.029Z,11.73
2023-02-05T06:06:54.210Z,12.57
2023-02-05T06:09:55.912Z,12.97
2023-02-05T06:12:57.821Z,22.37
2023-02-05T06:15:59.448Z,10.90
2023-02-05T06:19:01.094Z,9.73
2023-02-05T06:22:03.662Z,8.80
2023-02-05T06:25:05.978Z,10.10
2023-02-05T06:28:07.642Z,11.57
2023-02-05T06:31:09.472Z,10.67
2023-02-05T06:34:11.311Z,7.47
2023-02-05T06:37:12.987Z,8.33
2023-02-05T06:40:15.934Z,8.70
2023-02-05T06:43:17.562Z,9.47
2023-02-05T06:46:19.329Z,7.20
2023-02-05T06:49:21.029Z,8.57
2023-02-05T06:52:22.702Z,12.77
2023-02-05T06:55:24.442Z,8.23
2023-02-05T06:58:26.050Z,7.83
2023-02-05T07:01:27.727Z,8.30
2023-02-05T07:04:31.053Z,7.33
2023-02-05T07:07:33.667Z,10.00
2023-02-05T07:10:35.303Z,8.50
2023-02-05T07:13:36.968Z,7.27
2023-02-05T07:16:38.580Z,7.17
2023-02-05T07:19:40.270Z,6.87
2023-02-05T07:22:42.050Z,14.23
2023-02-05T07:25:43.660Z,9.10
2023-02-05T07:28:45.347Z,9.43
2023-02-05T07:31:48.980Z,5.37
2023-02-05T07:34:50.619Z,7.40
2023-02-05T07:37:52.227Z,10.87
2023-02-05T07:40:54.001Z,10.97
2023-02-05T07:43:55.700Z,8.83
2023-02-05T07:46:57.359Z,8.30
2023-02-05T07:49:59.047Z,10.17
2023-02-05T07:53:00.724Z,8.97
2023-02-05T07:56:05.580Z,9.30
2023-02-05T07:59:07.168Z,12.20
2023-02-05T08:02:09.788Z,5.50
2023-02-05T08:05:11.365Z,7.67
2023-02-05T08:08:13.210Z,7.57
2023-02-05T08:11:16.113Z,8.37
2023-02-05T08:14:17.762Z,6.73
2023-02-05T08:17:19.482Z,7.40
2023-02-05T08:20:22.313Z,7.23
2023-02-05T08:23:24.088Z,7.13
2023-02-05T08:26:25.774Z,7.47
2023-02-05T08:29:27.411Z,14.37
2023-02-05T08:32:29.022Z,7.87
2023-02-05T08:35:30.750Z,9.10
2023-02-05T08:38:32.350Z,7.90
2023-02-05T08:41:33.979Z,6.07
2023-02-05T08:44:35.554Z,10.10
2023-02-05T08:47:37.143Z,10.37
2023-02-05T08:50:38.734Z,9.90
2023-02-05T08:53:40.632Z,9.53
2023-02-05T08:56:43.106Z,11.03
2023-02-05T08:59:44.787Z,8.63
2023-02-05T09:02:46.418Z,12.03
2023-02-05T09:05:47.980Z,9.33
2023-02-05T09:08:49.611Z,9.57
2023-02-05T09:11:51.269Z,11.30
2023-02-05T09:14:52.969Z,8.33
2023-02-05T09:17:54.607Z,15.23
2023-02-05T09:20:56.980Z,9.17
2023-02-05T09:23:58.863Z,7.97
2023-02-05T09:27:00.842Z,7.87
2023-02-05T09:30:02.679Z,9.13
2023-02-05T09:33:04.864Z,8.90
2023-02-05T09:36:14.466Z,7.60
2023-02-05T09:39:39.610Z,7.13
2023-02-05T09:42:44.668Z,8.50
2023-02-05T09:46:07.769Z,16.97
2023-02-05T09:49:21.486Z,8.97
2023-02-05T09:52:27.470Z,7.60
2023-02-05T09:55:30.102Z,11.90
2023-02-05T09:58:35.085Z,9.27
2023-02-05T10:01:42.959Z,18.80
2023-02-05T10:04:44.608Z,11.60
2023-02-05T10:07:49.326Z,11.03
2023-02-05T10:10:53.719Z,7.97
2023-02-05T10:14:18.710Z,7.10
2023-02-05T10:17:29.544Z,9.47
2023-02-05T10:20:38.874Z,9.40
2023-02-05T10:23:43.445Z,7.20
2023-02-05T10:26:52.547Z,8.27
2023-02-05T10:30:05.007Z,8.87
2023-02-05T10:33:26.915Z,7.53
2023-02-05T10:36:28.714Z,12.67
2023-02-05T10:39:30.712Z,7.57
2023-02-05T10:42:35.328Z,8.77
2023-02-05T10:45:37.274Z,7.97
2023-02-05T10:48:46.660Z,6.97
2023-02-05T10:51:48.323Z,8.30
2023-02-05T10:54:51.049Z,5.33
2023-02-05T10:57:52.692Z,8.07
2023-02-05T11:00:54.635Z,5.73
2023-02-05T11:03:59.941Z,7.27
2023-02-05T11:07:06.161Z,7.60
2023-02-05T11:10:24.820Z,9.37
2023-02-05T11:13:28.106Z,7.60
2023-02-05T11:16:41.302Z,7.47
2023-02-05T11:19:52.480Z,7.57
2023-02-05T11:23:12.942Z,6.37
2023-02-05T11:26:17.990Z,6.60
2023-02-05T11:29:20.781Z,7.00
2023-02-05T11:32:36.580Z,10.73
2023-02-05T11:35:38.320Z,10.63
2023-02-05T11:38:47.679Z,14.00
2023-02-05T11:41:49.563Z,9.00
2023-02-05T11:44:59.009Z,9.07
2023-02-05T11:48:02.156Z,11.27
2023-02-05T11:51:04.695Z,10.83
2023-02-05T11:54:14.519Z,11.53
2023-02-05T11:57:22.258Z,9.67
2023-02-05T12:00:24.156Z,9.47
2023-02-05T12:03:31.528Z,9.90
2023-02-05T12:06:56.373Z,11.60
2023-02-05T12:09:59.861Z,10.20
2023-02-05T12:13:13.747Z,9.33
2023-02-05T12:16:18.442Z,9.77
2023-02-05T12:19:25.306Z,11.40
2023-02-05T12:22:29.981Z,7.73
2023-02-05T12:25:48.594Z,10.27
2023-02-05T12:28:50.169Z,9.37
2023-02-05T12:32:16.291Z,10.50
2023-02-05T12:35:36.997Z,10.30
2023-02-05T12:38:47.824Z,12.77
2023-02-05T12:41:55.937Z,10.70
2023-02-05T12:45:00.820Z,15.50
2023-02-05T12:48:08.568Z,12.20
2023-02-05T12:51:30.461Z,11.40
2023-02-05T12:54:38.242Z,10.23
2023-02-05T12:58:06.194Z,18.80
2023-02-05T13:01:11.978Z,13.00
2023-02-05T13:04:32.757Z,13.70
2023-02-05T13:07:40.137Z,15.20
2023-02-05T13:10:41.717Z,19.90
2023-02-05T13:13:46.290Z,19.20
2023-02-05T13:17:02.965Z,14.60
2023-02-05T13:20:07.095Z,11.03
2023-02-05T13:23:27.306Z,9.40
2023-02-05T13:26:58.235Z,5.97
2023-02-05T13:30:00.144Z,11.87
2023-02-05T13:33:03.462Z,8.33
2023-02-05T13:36:23.744Z,8.73
2023-02-05T13:39:34.781Z,18.90
2023-02-05T13:42:48.746Z,9.57
2023-02-05T13:46:08.299Z,9.57
2023-02-05T13:49:28.517Z,10.30
2023-02-05T13:52:36.188Z,10.50
2023-02-05T13:55:56.610Z,8.50
2023-02-05T13:59:01.101Z,11.07
2023-02-05T14:02:03.360Z,13.17
2023-02-05T14:05:05.451Z,10.77
2023-02-05T14:08:19.367Z,14.90
2023-02-05T14:11:21.110Z,11.37
2023-02-05T14:14:27.286Z,12.53
2023-02-05T14:17:31.802Z,13.47
2023-02-05T14:20:35.189Z,15.60
2023-02-05T14:23:46.017Z,13.27
2023-02-05T14:26:51.907Z,13.73
2023-02-05T14:29:53.794Z,9.17
2023-02-05T14:32:56.825Z,13.57
2023-02-05T14:36:19.914Z,15.97
2023-02-05T14:39:25.863Z,13.03
2023-02-05T14:42:32.210Z,17.17
2023-02-05T14:45:34.766Z,16.17
2023-02-05T14:48:42.492Z,10.33
2023-02-05T14:51:48.980Z,11.80
2023-02-05T14:54:57.247Z,11.47
2023-02-05T14:58:03.195Z,16.03
2023-02-05T15:01:26.647Z,14.27
2023-02-05T15:04:34.969Z,14.83
2023-02-05T15:07:37.084Z,17.90
2023-02-05T15:10:51.040Z,12.17
2023-02-05T15:14:11.692Z,15.03
2023-02-05T15:17:16.326Z,20.23
2023-02-05T15:20:26.682Z,17.57
2023-02-05T15:23:32.245Z,17.57
2023-02-05T15:26:55.068Z,14.30
2023-02-05T15:29:57.507Z,20.77
2023-02-05T15:33:02.024Z,13.57
2023-02-05T15:36:10.950Z,15.33
2023-02-05T15:39:32.993Z,18.33
2023-02-05T15:42:42.217Z,13.63
2023-02-05T15:45:47.802Z,14.37
2023-02-05T15:48:49.591Z,14.93
2023-02-05T15:51:51.392Z,11.57
2023-02-05T15:54:54.524Z,15.40
2023-02-05T15:58:00.861Z,12.27
2023-02-05T16:01:03.257Z,11.90
2023-02-05T16:04:23.300Z,17.83
2023-02-05T16:07:26.763Z,12.43
2023-02-05T16:10:30.306Z,15.60
2023-02-05T16:13:32.072Z,15.93
2023-02-05T16:16:35.325Z,16.83
2023-02-05T16:19:39.989Z,14.03
2023-02-05T16:22:43.944Z,16.57
2023-02-05T16:25:49.406Z,15.27
2023-02-05T16:29:09.728Z,23.70
2023-02-05T16:32:29.225Z,16.83
2023-02-05T16:35:34.865Z,20.70
2023-02-05T16:38:36.608Z,18.10
2023-02-05T16:41:40.324Z,14.43
2023-02-05T16:44:43.129Z,12.30
2023-02-05T16:47:44.833Z,11.53
2023-02-05T16:50:46.599Z,11.50
2023-02-05T16:53:49.636Z,11.20
2023-02-05T16:56:51.392Z,14.13
2023-02-05T16:59:54.765Z,13.60
2023-02-05T17:02:58.140Z,14.87
2023-02-05T17:06:04.312Z,15.53
2023-02-05T17:09:06.397Z,14.90
2023-02-05T17:12:23.198Z,16.90
2023-02-05T17:15:26.218Z,10.47
2023-02-05T17:18:29.784Z,11.50
2023-02-05T17:21:35.400Z,11.50
2023-02-05T17:24:37.082Z,13.57
2023-02-05T17:27:39.190Z,9.63
2023-02-05T17:30:41.845Z,12.37
2023-02-05T17:33:43.548Z,11.57
2023-02-05T17:36:45.398Z,10.67
2023-02-05T17:39:47.186Z,15.43
2023-02-05T17:42:49.178Z,14.40
2023-02-05T17:45:51.181Z,13.53
2023-02-05T17:48:52.971Z,16.67
2023-02-05T17:51:54.748Z,15.30
2023-02-05T17:54:56.413Z,15.67
2023-02-05T17:57:58.114Z,18.27
2023-02-05T18:00:59.824Z,18.07
2023-02-05T18:04:01.548Z,17.40
2023-02-05T18:07:03.444Z,20.70
2023-02-05T18:10:05.783Z,14.63
2023-02-05T18:13:07.459Z,20.87
2023-02-05T18:16:11.232Z,11.00
2023-02-05T18:19:14.008Z,13.90
2023-02-05T18:22:15.972Z,14.93
2023-02-05T18:25:18.069Z,14.57
2023-02-05T18:28:20.058Z,12.27
2023-02-05T18:31:22.009Z,10.00
2023-02-05T18:34:23.906Z,10.33
2023-02-05T18:37:26.560Z,9.40
2023-02-05T18:40:28.358Z,10.17
2023-02-05T18:43:29.991Z,10.00
2023-02-05T18:46:31.774Z,11.43
2023-02-05T18:49:34.161Z,19.83
2023-02-05T18:52:38.643Z,14.30
2023-02-05T18:55:40.521Z,8.57
2023-02-05T18:58:46.185Z,10.10
2023-02-05T19:01:47.948Z,12.03
2023-02-05T19:04:55.722Z,11.07
2023-02-05T19:07:58.935Z,13.93
2023-02-05T19:11:05.199Z,13.40
2023-02-05T19:14:07.927Z,12.60
2023-02-05T19:17:09.554Z,16.30
2023-02-05T19:20:11.406Z,14.67
2023-02-05T19:23:13.069Z,15.23
2023-02-05T19:26:15.983Z,13.13
2023-02-05T19:29:18.830Z,10.27
2023-02-05T19:32:20.419Z,14.47
2023-02-05T19:35:22.054Z,12.70
2023-02-05T19:38:23.851Z,12.37
2023-02-05T19:41:26.418Z,12.13
2023-02-05T19:44:29.732Z,11.07
2023-02-05T19:47:31.574Z,6.93
2023-02-05T19:50:33.997Z,11.50
2023-02-05T19:53:39.007Z,13.20
2023-02-05T19:56:41.335Z,14.33
2023-02-05T19:59:42.962Z,7.63
2023-02-05T20:02:44.597Z,10.20
2023-02-05T20:05:46.196Z,11.23
2023-02-05T20:08:47.816Z,8.03
2023-02-05T20:11:50.913Z,9.03
2023-02-05T20:14:52.521Z,10.37
2023-02-05T20:17:54.126Z,11.03
2023-02-05T20:20:55.786Z,11.83
2023-02-05T20:23:57.407Z,12.33
2023-02-05T20:26:59.159Z,11.37
2023-02-05T20:30:19.427Z,12.30
2023-02-05T20:33:21.060Z,10.90
2023-02-05T20:36:22.841Z,11.83
2023-02-05T20:39:26.472Z,11.70
2023-02-05T20:42:28.083Z,10.17
2023-02-05T20:45:29.717Z,12.23
2023-02-05T20:48:31.286Z,7.13
2023-02-05T20:51:33.114Z,10.07
2023-02-05T20:54:35.124Z,10.63
2023-02-05T20:57:36.781Z,9.50
2023-02-05T21:00:38.666Z,10.50
2023-02-05T21:03:42.391Z,12.60
2023-02-05T21:06:43.961Z,9.07
2023-02-05T21:09:45.581Z,7.10
2023-02-05T21:12:47.432Z,6.63
2023-02-05T21:15:56.323Z,8.03
2023-02-05T21:18:57.951Z,8.40
2023-02-05T21:22:00.520Z,7.07
2023-02-05T21:25:02.189Z,8.20
2023-02-05T21:28:03.944Z,5.70
2023-02-05T21:31:07.263Z,7.30
2023-02-05T21:34:10.892Z,7.80
2023-02-05T21:37:12.528Z,6.37
2023-02-05T21:40:14.184Z,8.43
2023-02-05T21:43:15.787Z,10.00
2023-02-05T21:46:17.966Z,8.93
2023-02-05T21:49:19.588Z,9.63
2023-02-05T21:52:21.236Z,7.90
2023-02-05T21:55:24.110Z,9.10
2023-02-05T21:58:25.775Z,8.60
2023-02-05T22:01:28.785Z,12.47
2023-02-05T22:04:30.421Z,10.77
2023-02-05T22:07:32.277Z,10.63
2023-02-05T22:10:34.230Z,9.37
2023-02-05T22:13:37.296Z,8.33
2023-02-05T22:16:39.067Z,7.93
2023-02-05T22:19:40.688Z,9.00
2023-02-05T22:22:42.312Z,7.90
2023-02-05T22:25:47.563Z,6.10
2023-02-05T22:28:49.470Z,5.93
2023-02-05T22:31:51.859Z,6.97
2023-02-05T22:34:54.307Z,6.90
2023-02-05T22:37:55.962Z,6.00
2023-02-05T22:40:57.790Z,6.90
2023-02-05T22:43:59.794Z,5.77
2023-02-05T22:47:01.411Z,5.27
2023-02-05T22:50:03.118Z,5.30
2023-02-05T22:53:04.753Z,5.40
2023-02-05T22:56:08.246Z,6.00
2023-02-05T22:59:09.993Z,6.50
2023-02-05T23:02:11.579Z,5.73
2023-02-05T23:05:13.122Z,6.40
2023-02-05T23:08:14.788Z,6.87
2023-02-05T23:11:16.454Z,6.73
2023-02-05T23:14:18.175Z,5.60
2023-02-05T23:17:19.782Z,5.63
2023-02-05T23:20:21.503Z,8.60
2023-02-05T23:23:23.049Z,9.77
2023-02-05T23:26:30.175Z,10.87
2023-02-05T23:29:31.848Z,6.77
2023-02-05T23:32:33.535Z,7.50
2023-02-05T23:35:35.375Z,5.83
2023-02-05T23:38:37.636Z,8.37
2023-02-05T23:41:40.021Z,7.03
2023-02-05T23:44:41.877Z,4.90
2023-02-05T23:47:43.544Z,6.20
2023-02-05T23:50:45.274Z,6.10
2023-02-05T23:53:46.945Z,6.30
2023-02-05T23:56:48.852Z,6.00
2023-02-05T23:59:50.558Z,6.27
